sensor_id;sensor_type;location;lat;lon;timestamp;P1;durP1;ratioP1;P2;durP2;ratioP2
33403;SDS011;19751;40.274;18.268;2022-09-09T00:10:51;8.57;;;3.95;;
33403;SDS011;19751;40.274;18.268;2022-09-09T00:17:08;9.82;;;5.05;;
33403;SDS011;19751;40.274;18.268;2022-09-09T00:29:45;16.55;;;5.20;;
33403;SDS011;19751;40.274;18.268;2022-09-09T00:32:19;11.05;;;5.10;;
33403;SDS011;19751;40.274;18.268;2022-09-09T00:34:56;7.53;;;4.88;;
33403;SDS011;19751;40.274;18.268;2022-09-09T00:37:46;14.77;;;4.95;;
33403;SDS011;19751;40.274;18.268;2022-09-09T00:40:31;9.75;;;4.55;;
33403;SDS011;19751;40.274;18.268;2022-09-09T00:43:10;7.13;;;4.30;;
33403;SDS011;19751;40.274;18.268;2022-09-09T01:01:47;8.18;;;3.90;;
33403;SDS011;19751;40.274;18.268;2022-09-09T01:04:16;9.48;;;4.47;;
33403;SDS011;19751;40.274;18.268;2022-09-09T01:07:16;7.13;;;4.10;;
33403;SDS011;19751;40.274;18.268;2022-09-09T01:13:08;13.85;;;4.30;;
33403;SDS011;19751;40.274;18.268;2022-09-09T01:19:24;11.60;;;5.05;;
33403;SDS011;19751;40.274;18.268;2022-09-09T01:28:25;7.40;;;4.18;;
33403;SDS011;19751;40.274;18.268;2022-09-09T01:34:01;9.98;;;4.25;;
33403;SDS011;19751;40.274;18.268;2022-09-09T01:37:00;10.10;;;4.97;;
33403;SDS011;19751;40.274;18.268;2022-09-09T01:42:36;9.15;;;4.13;;
33403;SDS011;19751;40.274;18.268;2022-09-09T01:45:02;8.20;;;4.10;;
33403;SDS011;19751;40.274;18.268;2022-09-09T01:47:29;7.78;;;4.75;;
33403;SDS011;19751;40.274;18.268;2022-09-09T01:52:28;8.07;;;4.03;;
33403;SDS011;19751;40.274;18.268;2022-09-09T01:54:55;6.93;;;3.92;;
33403;SDS011;19751;40.274;18.268;2022-09-09T02:00:13;11.57;;;4.80;;
33403;SDS011;19751;40.274;18.268;2022-09-09T02:02:53;7.50;;;4.22;;
33403;SDS011;19751;40.274;18.268;2022-09-09T02:05:45;10.73;;;4.45;;
33403;SDS011;19751;40.274;18.268;2022-09-09T02:08:48;6.88;;;4.45;;
33403;SDS011;19751;40.274;18.268;2022-09-09T02:11:19;12.90;;;4.65;;
33403;SDS011;19751;40.274;18.268;2022-09-09T02:13:49;17.05;;;4.03;;
33403;SDS011;19751;40.274;18.268;2022-09-09T02:21:52;12.70;;;5.43;;
33403;SDS011;19751;40.274;18.268;2022-09-09T02:24:20;9.05;;;4.63;;
33403;SDS011;19751;40.274;18.268;2022-09-09T02:29:44;10.25;;;4.43;;
33403;SDS011;19751;40.274;18.268;2022-09-09T02:32:13;10.98;;;4.95;;
33403;SDS011;19751;40.274;18.268;2022-09-09T02:38:05;11.75;;;5.32;;
33403;SDS011;19751;40.274;18.268;2022-09-09T02:47:51;12.55;;;4.45;;
33403;SDS011;19751;40.274;18.268;2022-09-09T02:50:25;11.63;;;4.20;;
33403;SDS011;19751;40.274;18.268;2022-09-09T02:53:20;8.88;;;4.75;;
33403;SDS011;19751;40.274;18.268;2022-09-09T02:56:18;7.85;;;4.55;;
33403;SDS011;19751;40.274;18.268;2022-09-09T03:01:35;8.50;;;4.38;;
33403;SDS011;19751;40.274;18.268;2022-09-09T03:04:01;13.43;;;5.47;;
33403;SDS011;19751;40.274;18.268;2022-09-09T03:09:28;9.57;;;4.32;;
33403;SDS011;19751;40.274;18.268;2022-09-09T03:11:54;8.90;;;4.50;;
33403;SDS011;19751;40.274;18.268;2022-09-09T03:17:22;10.15;;;4.03;;
33403;SDS011;19751;40.274;18.268;2022-09-09T03:22:39;11.82;;;5.03;;
33403;SDS011;19751;40.274;18.268;2022-09-09T03:27:51;8.30;;;4.10;;
33403;SDS011;19751;40.274;18.268;2022-09-09T03:30:20;6.07;;;3.90;;
33403;SDS011;19751;40.274;18.268;2022-09-09T03:36:01;9.23;;;3.90;;
33403;SDS011;19751;40.274;18.268;2022-09-09T03:38:27;13.88;;;4.63;;
33403;SDS011;19751;40.274;18.268;2022-09-09T03:43:39;12.38;;;4.72;;
33403;SDS011;19751;40.274;18.268;2022-09-09T03:46:05;12.13;;;5.93;;
33403;SDS011;19751;40.274;18.268;2022-09-09T03:51:28;12.88;;;5.07;;
33403;SDS011;19751;40.274;18.268;2022-09-09T03:53:54;9.98;;;4.75;;
33403;SDS011;19751;40.274;18.268;2022-09-09T03:59:27;11.95;;;5.25;;
33403;SDS011;19751;40.274;18.268;2022-09-09T04:01:53;11.20;;;4.55;;
33403;SDS011;19751;40.274;18.268;2022-09-09T04:04:20;9.60;;;4.40;;
33403;SDS011;19751;40.274;18.268;2022-09-09T04:06:47;9.98;;;5.15;;
33403;SDS011;19751;40.274;18.268;2022-09-09T04:12:35;9.23;;;3.85;;
33403;SDS011;19751;40.274;18.268;2022-09-09T04:17:48;11.32;;;4.60;;
33403;SDS011;19751;40.274;18.268;2022-09-09T04:20:14;8.20;;;4.70;;
33403;SDS011;19751;40.274;18.268;2022-09-09T04:22:56;9.25;;;4.20;;
33403;SDS011;19751;40.274;18.268;2022-09-09T04:25:35;12.73;;;3.92;;
33403;SDS011;19751;40.274;18.268;2022-09-09T04:28:00;10.38;;;4.53;;
33403;SDS011;19751;40.274;18.268;2022-09-09T04:30:26;11.52;;;5.30;;
33403;SDS011;19751;40.274;18.268;2022-09-09T04:36:27;11.70;;;4.18;;
33403;SDS011;19751;40.274;18.268;2022-09-09T04:38:52;9.48;;;4.70;;
33403;SDS011;19751;40.274;18.268;2022-09-09T04:41:21;7.20;;;4.07;;
33403;SDS011;19751;40.274;18.268;2022-09-09T04:43:47;10.18;;;4.80;;
33403;SDS011;19751;40.274;18.268;2022-09-09T04:46:27;10.82;;;3.97;;
33403;SDS011;19751;40.274;18.268;2022-09-09T04:48:52;9.52;;;4.57;;
33403;SDS011;19751;40.274;18.268;2022-09-09T04:51:18;11.95;;;4.20;;
33403;SDS011;19751;40.274;18.268;2022-09-09T04:57:06;6.75;;;4.03;;
33403;SDS011;19751;40.274;18.268;2022-09-09T04:59:42;16.98;;;4.68;;
33403;SDS011;19751;40.274;18.268;2022-09-09T05:02:08;14.85;;;5.45;;
33403;SDS011;19751;40.274;18.268;2022-09-09T05:04:34;15.30;;;3.97;;
33403;SDS011;19751;40.274;18.268;2022-09-09T05:07:07;8.32;;;4.28;;
33403;SDS011;19751;40.274;18.268;2022-09-09T05:09:33;8.23;;;3.60;;
33403;SDS011;19751;40.274;18.268;2022-09-09T05:15:19;13.40;;;4.25;;
33403;SDS011;19751;40.274;18.268;2022-09-09T05:18:04;9.75;;;3.60;;
33403;SDS011;19751;40.274;18.268;2022-09-09T05:23:52;10.77;;;4.03;;
33403;SDS011;19751;40.274;18.268;2022-09-09T05:26:19;13.52;;;4.07;;
33403;SDS011;19751;40.274;18.268;2022-09-09T05:28:54;11.88;;;4.15;;
33403;SDS011;19751;40.274;18.268;2022-09-09T05:31:20;8.90;;;3.55;;
33403;SDS011;19751;40.274;18.268;2022-09-09T05:33:46;8.82;;;4.00;;
33403;SDS011;19751;40.274;18.268;2022-09-09T05:36:25;17.23;;;4.70;;
33403;SDS011;19751;40.274;18.268;2022-09-09T05:38:51;9.20;;;3.72;;
33403;SDS011;19751;40.274;18.268;2022-09-09T05:44:05;7.63;;;3.30;;
33403;SDS011;19751;40.274;18.268;2022-09-09T05:46:31;15.02;;;4.40;;
33403;SDS011;19751;40.274;18.268;2022-09-09T05:48:56;12.63;;;3.83;;
33403;SDS011;19751;40.274;18.268;2022-09-09T05:51:26;10.73;;;4.28;;
33403;SDS011;19751;40.274;18.268;2022-09-09T05:53:55;11.98;;;4.13;;
33403;SDS011;19751;40.274;18.268;2022-09-09T05:59:18;6.47;;;4.53;;
33403;SDS011;19751;40.274;18.268;2022-09-09T06:01:44;7.38;;;3.90;;
33403;SDS011;19751;40.274;18.268;2022-09-09T06:04:10;10.95;;;4.13;;
33403;SDS011;19751;40.274;18.268;2022-09-09T06:06:37;9.75;;;4.28;;
33403;SDS011;19751;40.274;18.268;2022-09-09T06:09:05;6.68;;;3.30;;
33403;SDS011;19751;40.274;18.268;2022-09-09T06:11:35;14.05;;;5.05;;
33403;SDS011;19751;40.274;18.268;2022-09-09T06:14:01;9.18;;;4.88;;
33403;SDS011;19751;40.274;18.268;2022-09-09T06:16:28;7.10;;;4.10;;
33403;SDS011;19751;40.274;18.268;2022-09-09T06:18:55;9.85;;;3.90;;
33403;SDS011;19751;40.274;18.268;2022-09-09T06:21:22;18.25;;;4.82;;
33403;SDS011;19751;40.274;18.268;2022-09-09T06:23:56;8.50;;;3.58;;
33403;SDS011;19751;40.274;18.268;2022-09-09T06:28:53;11.60;;;3.58;;
33403;SDS011;19751;40.274;18.268;2022-09-09T06:31:21;13.43;;;4.80;;
33403;SDS011;19751;40.274;18.268;2022-09-09T06:33:52;8.32;;;3.53;;
33403;SDS011;19751;40.274;18.268;2022-09-09T06:36:26;8.88;;;4.07;;
33403;SDS011;19751;40.274;18.268;2022-09-09T06:38:53;8.63;;;3.88;;
33403;SDS011;19751;40.274;18.268;2022-09-09T06:41:20;8.88;;;3.63;;
33403;SDS011;19751;40.274;18.268;2022-09-09T06:43:47;10.02;;;3.95;;
33403;SDS011;19751;40.274;18.268;2022-09-09T06:46:14;7.47;;;3.90;;
33403;SDS011;19751;40.274;18.268;2022-09-09T06:48:41;12.23;;;3.97;;
33403;SDS011;19751;40.274;18.268;2022-09-09T06:51:20;11.35;;;4.47;;
33403;SDS011;19751;40.274;18.268;2022-09-09T06:53:47;12.73;;;4.30;;
33403;SDS011;19751;40.274;18.268;2022-09-09T06:58:41;10.05;;;3.80;;
33403;SDS011;19751;40.274;18.268;2022-09-09T07:01:13;9.35;;;3.50;;
33403;SDS011;19751;40.274;18.268;2022-09-09T07:03:41;15.75;;;4.25;;
33403;SDS011;19751;40.274;18.268;2022-09-09T07:06:13;9.18;;;3.67;;
33403;SDS011;19751;40.274;18.268;2022-09-09T07:08:40;12.88;;;4.07;;
33403;SDS011;19751;40.274;18.268;2022-09-09T07:11:07;13.57;;;5.25;;
33403;SDS011;19751;40.274;18.268;2022-09-09T07:13:33;28.17;;;5.38;;
33403;SDS011;19751;40.274;18.268;2022-09-09T07:16:08;20.08;;;4.97;;
33403;SDS011;19751;40.274;18.268;2022-09-09T07:18:35;9.52;;;3.50;;
33403;SDS011;19751;40.274;18.268;2022-09-09T07:21:02;36.50;;;6.72;;
33403;SDS011;19751;40.274;18.268;2022-09-09T07:23:28;15.35;;;3.90;;
33403;SDS011;19751;40.274;18.268;2022-09-09T07:25:55;11.23;;;3.70;;
33403;SDS011;19751;40.274;18.268;2022-09-09T07:28:21;17.88;;;3.67;;
33403;SDS011;19751;40.274;18.268;2022-09-09T07:30:55;22.92;;;4.82;;
33403;SDS011;19751;40.274;18.268;2022-09-09T07:33:23;10.05;;;4.18;;
33403;SDS011;19751;40.274;18.268;2022-09-09T07:35:50;23.40;;;4.90;;
33403;SDS011;19751;40.274;18.268;2022-09-09T07:38:16;6.22;;;3.90;;
33403;SDS011;19751;40.274;18.268;2022-09-09T07:40:41;8.65;;;4.20;;
33403;SDS011;19751;40.274;18.268;2022-09-09T07:43:08;13.63;;;5.03;;
33403;SDS011;19751;40.274;18.268;2022-09-09T07:45:34;12.20;;;4.35;;
33403;SDS011;19751;40.274;18.268;2022-09-09T07:48:01;14.07;;;4.65;;
33403;SDS011;19751;40.274;18.268;2022-09-09T07:50:27;9.95;;;3.92;;
33403;SDS011;19751;40.274;18.268;2022-09-09T07:52:53;10.90;;;3.75;;
33403;SDS011;19751;40.274;18.268;2022-09-09T07:55:20;11.05;;;4.55;;
33403;SDS011;19751;40.274;18.268;2022-09-09T07:57:46;13.65;;;4.22;;
33403;SDS011;19751;40.274;18.268;2022-09-09T08:00:12;13.85;;;4.43;;
33403;SDS011;19751;40.274;18.268;2022-09-09T08:02:39;12.57;;;4.43;;
33403;SDS011;19751;40.274;18.268;2022-09-09T08:05:06;8.90;;;4.88;;
33403;SDS011;19751;40.274;18.268;2022-09-09T08:07:32;11.02;;;4.70;;
33403;SDS011;19751;40.274;18.268;2022-09-09T08:09:57;11.95;;;5.90;;
33403;SDS011;19751;40.274;18.268;2022-09-09T08:12:23;12.70;;;4.25;;
33403;SDS011;19751;40.274;18.268;2022-09-09T08:14:49;14.60;;;4.88;;
33403;SDS011;19751;40.274;18.268;2022-09-09T08:17:16;10.35;;;4.75;;
33403;SDS011;19751;40.274;18.268;2022-09-09T08:19:42;19.45;;;5.00;;
33403;SDS011;19751;40.274;18.268;2022-09-09T08:22:09;16.25;;;5.22;;
33403;SDS011;19751;40.274;18.268;2022-09-09T08:24:35;13.98;;;4.55;;
33403;SDS011;19751;40.274;18.268;2022-09-09T08:27:01;14.32;;;4.93;;
33403;SDS011;19751;40.274;18.268;2022-09-09T08:29:26;16.15;;;5.15;;
33403;SDS011;19751;40.274;18.268;2022-09-09T08:31:54;11.15;;;4.95;;
33403;SDS011;19751;40.274;18.268;2022-09-09T08:34:23;13.25;;;5.20;;
33403;SDS011;19751;40.274;18.268;2022-09-09T08:36:51;11.00;;;4.50;;
33403;SDS011;19751;40.274;18.268;2022-09-09T08:39:18;10.70;;;5.32;;
33403;SDS011;19751;40.274;18.268;2022-09-09T08:50:28;13.23;;;4.78;;
33403;SDS011;19751;40.274;18.268;2022-09-09T08:53:00;17.80;;;4.57;;
33403;SDS011;19751;40.274;18.268;2022-09-09T08:55:39;13.38;;;4.82;;
33403;SDS011;19751;40.274;18.268;2022-09-09T08:58:26;15.85;;;4.25;;
33403;SDS011;19751;40.274;18.268;2022-09-09T09:09:11;14.85;;;4.80;;
33403;SDS011;19751;40.274;18.268;2022-09-09T09:11:46;16.00;;;5.03;;
33403;SDS011;19751;40.274;18.268;2022-09-09T09:14:22;13.63;;;5.43;;
33403;SDS011;19751;40.274;18.268;2022-09-09T09:16:53;15.57;;;5.68;;
33403;SDS011;19751;40.274;18.268;2022-09-09T09:19:26;9.55;;;4.40;;
33403;SDS011;19751;40.274;18.268;2022-09-09T09:27:32;15.00;;;4.40;;
33403;SDS011;19751;40.274;18.268;2022-09-09T09:30:10;14.77;;;4.45;;
33403;SDS011;19751;40.274;18.268;2022-09-09T09:32:44;12.63;;;4.05;;
33403;SDS011;19751;40.274;18.268;2022-09-09T09:35:21;16.20;;;4.70;;
33403;SDS011;19751;40.274;18.268;2022-09-09T09:37:47;12.02;;;5.57;;
33403;SDS011;19751;40.274;18.268;2022-09-09T09:40:20;10.90;;;4.20;;
33403;SDS011;19751;40.274;18.268;2022-09-09T09:45:33;16.05;;;3.97;;
33403;SDS011;19751;40.274;18.268;2022-09-09T09:48:09;17.60;;;5.32;;
33403;SDS011;19751;40.274;18.268;2022-09-09T09:50:39;13.10;;;4.38;;
33403;SDS011;19751;40.274;18.268;2022-09-09T09:53:25;10.73;;;4.25;;
33403;SDS011;19751;40.274;18.268;2022-09-09T09:56:05;16.80;;;5.05;;
33403;SDS011;19751;40.274;18.268;2022-09-09T09:58:48;11.85;;;4.43;;
33403;SDS011;19751;40.274;18.268;2022-09-09T10:01:27;17.35;;;5.00;;
33403;SDS011;19751;40.274;18.268;2022-09-09T10:04:14;12.50;;;5.10;;
33403;SDS011;19751;40.274;18.268;2022-09-09T10:06:43;12.30;;;3.67;;
33403;SDS011;19751;40.274;18.268;2022-09-09T10:18:01;16.48;;;3.92;;
33403;SDS011;19751;40.274;18.268;2022-09-09T10:20:52;17.65;;;4.05;;
33403;SDS011;19751;40.274;18.268;2022-09-09T10:32:41;21.33;;;5.25;;
33403;SDS011;19751;40.274;18.268;2022-09-09T10:43:17;12.20;;;4.10;;
33403;SDS011;19751;40.274;18.268;2022-09-09T10:46:10;12.57;;;4.18;;
33403;SDS011;19751;40.274;18.268;2022-09-09T10:57:24;14.90;;;3.90;;
33403;SDS011;19751;40.274;18.268;2022-09-09T11:00:06;15.93;;;4.25;;
33403;SDS011;19751;40.274;18.268;2022-09-09T11:02:40;17.98;;;5.70;;
33403;SDS011;19751;40.274;18.268;2022-09-09T11:05:14;17.00;;;5.55;;
33403;SDS011;19751;40.274;18.268;2022-09-09T11:16:13;13.35;;;4.63;;
33403;SDS011;19751;40.274;18.268;2022-09-09T11:18:55;31.55;;;11.90;;
33403;SDS011;19751;40.274;18.268;2022-09-09T11:21:34;14.95;;;4.65;;
33403;SDS011;19751;40.274;18.268;2022-09-09T11:24:06;18.45;;;6.13;;
33403;SDS011;19751;40.274;18.268;2022-09-09T11:26:42;14.60;;;4.53;;
33403;SDS011;19751;40.274;18.268;2022-09-09T11:40:56;11.43;;;4.30;;
33403;SDS011;19751;40.274;18.268;2022-09-09T11:43:31;25.65;;;4.88;;
33403;SDS011;19751;40.274;18.268;2022-09-09T11:46:04;17.50;;;4.90;;
33403;SDS011;19751;40.274;18.268;2022-09-09T11:48:33;16.25;;;5.88;;
33403;SDS011;19751;40.274;18.268;2022-09-09T11:51:05;26.75;;;5.93;;
33403;SDS011;19751;40.274;18.268;2022-09-09T11:53:48;17.75;;;4.88;;
33403;SDS011;19751;40.274;18.268;2022-09-09T11:56:23;16.35;;;4.97;;
33403;SDS011;19751;40.274;18.268;2022-09-09T11:58:59;12.93;;;4.47;;
33403;SDS011;19751;40.274;18.268;2022-09-09T12:04:05;17.13;;;6.60;;
33403;SDS011;19751;40.274;18.268;2022-09-09T12:07:04;20.63;;;5.03;;
33403;SDS011;19751;40.274;18.268;2022-09-09T12:09:39;18.40;;;4.55;;
33403;SDS011;19751;40.274;18.268;2022-09-09T12:12:46;20.02;;;5.78;;
33403;SDS011;19751;40.274;18.268;2022-09-09T12:20:33;22.58;;;5.35;;
33403;SDS011;19751;40.274;18.268;2022-09-09T12:23:08;18.65;;;5.10;;
33403;SDS011;19751;40.274;18.268;2022-09-09T12:26:06;15.50;;;6.30;;
33403;SDS011;19751;40.274;18.268;2022-09-09T12:31:50;13.38;;;4.93;;
33403;SDS011;19751;40.274;18.268;2022-09-09T12:34:38;16.85;;;5.30;;
33403;SDS011;19751;40.274;18.268;2022-09-09T12:40:18;25.05;;;5.38;;
33403;SDS011;19751;40.274;18.268;2022-09-09T12:42:44;21.92;;;6.03;;
33403;SDS011;19751;40.274;18.268;2022-09-09T12:45:17;17.05;;;5.68;;
33403;SDS011;19751;40.274;18.268;2022-09-09T12:50:43;12.07;;;4.43;;
33403;SDS011;19751;40.274;18.268;2022-09-09T12:53:25;13.25;;;5.57;;
33403;SDS011;19751;40.274;18.268;2022-09-09T12:55:59;19.35;;;5.80;;
33403;SDS011;19751;40.274;18.268;2022-09-09T12:58:27;13.35;;;6.05;;
33403;SDS011;19751;40.274;18.268;2022-09-09T13:00:58;16.67;;;4.90;;
33403;SDS011;19751;40.274;18.268;2022-09-09T13:03:28;17.10;;;5.20;;
33403;SDS011;19751;40.274;18.268;2022-09-09T13:05:57;16.83;;;5.75;;
33403;SDS011;19751;40.274;18.268;2022-09-09T13:08:27;14.27;;;4.83;;
33403;SDS011;19751;40.274;18.268;2022-09-09T13:10:54;13.45;;;4.05;;
33403;SDS011;19751;40.274;18.268;2022-09-09T13:13:35;12.55;;;4.93;;
33403;SDS011;19751;40.274;18.268;2022-09-09T13:16:04;16.77;;;5.90;;
33403;SDS011;19751;40.274;18.268;2022-09-09T13:18:36;20.75;;;4.80;;
33403;SDS011;19751;40.274;18.268;2022-09-09T13:21:06;20.35;;;5.22;;
33403;SDS011;19751;40.274;18.268;2022-09-09T13:23:33;25.95;;;6.78;;
33403;SDS011;19751;40.274;18.268;2022-09-09T13:26:33;17.88;;;5.85;;
33403;SDS011;19751;40.274;18.268;2022-09-09T13:28:52;16.02;;;4.80;;
33403;SDS011;19751;40.274;18.268;2022-09-09T13:31:21;15.85;;;5.30;;
33403;SDS011;19751;40.274;18.268;2022-09-09T13:33:53;23.27;;;5.28;;
33403;SDS011;19751;40.274;18.268;2022-09-09T13:36:27;13.25;;;5.15;;
33403;SDS011;19751;40.274;18.268;2022-09-09T13:38:58;19.67;;;5.50;;
33403;SDS011;19751;40.274;18.268;2022-09-09T13:41:26;15.95;;;5.53;;
33403;SDS011;19751;40.274;18.268;2022-09-09T13:43:57;16.17;;;4.90;;
33403;SDS011;19751;40.274;18.268;2022-09-09T13:46:37;14.88;;;4.68;;
33403;SDS011;19751;40.274;18.268;2022-09-09T13:51:39;18.27;;;5.38;;
33403;SDS011;19751;40.274;18.268;2022-09-09T13:54:10;18.25;;;4.85;;
33403;SDS011;19751;40.274;18.268;2022-09-09T13:56:38;15.60;;;4.35;;
33403;SDS011;19751;40.274;18.268;2022-09-09T13:59:05;19.70;;;5.10;;
33403;SDS011;19751;40.274;18.268;2022-09-09T14:01:40;18.90;;;5.72;;
33403;SDS011;19751;40.274;18.268;2022-09-09T14:04:06;16.15;;;4.80;;
33403;SDS011;19751;40.274;18.268;2022-09-09T14:06:32;16.13;;;5.47;;
33403;SDS011;19751;40.274;18.268;2022-09-09T14:09:02;13.02;;;5.35;;
33403;SDS011;19751;40.274;18.268;2022-09-09T14:11:28;18.23;;;6.22;;
33403;SDS011;19751;40.274;18.268;2022-09-09T14:13:53;12.98;;;4.82;;
33403;SDS011;19751;40.274;18.268;2022-09-09T14:16:19;21.17;;;5.38;;
33403;SDS011;19751;40.274;18.268;2022-09-09T14:18:47;14.93;;;5.15;;
33403;SDS011;19751;40.274;18.268;2022-09-09T14:21:13;19.23;;;7.40;;
33403;SDS011;19751;40.274;18.268;2022-09-09T14:23:40;18.95;;;5.30;;
33403;SDS011;19751;40.274;18.268;2022-09-09T14:26:07;12.77;;;5.10;;
33403;SDS011;19751;40.274;18.268;2022-09-09T14:28:33;15.05;;;5.57;;
33403;SDS011;19751;40.274;18.268;2022-09-09T14:31:00;14.60;;;5.20;;
33403;SDS011;19751;40.274;18.268;2022-09-09T14:33:27;14.00;;;5.25;;
33403;SDS011;19751;40.274;18.268;2022-09-09T14:35:56;18.90;;;6.68;;
33403;SDS011;19751;40.274;18.268;2022-09-09T14:38:29;20.08;;;5.03;;
33403;SDS011;19751;40.274;18.268;2022-09-09T14:40:56;13.77;;;4.50;;
33403;SDS011;19751;40.274;18.268;2022-09-09T14:43:23;16.00;;;4.45;;
33403;SDS011;19751;40.274;18.268;2022-09-09T14:45:49;10.15;;;4.88;;
33403;SDS011;19751;40.274;18.268;2022-09-09T14:48:16;13.38;;;4.90;;
33403;SDS011;19751;40.274;18.268;2022-09-09T14:50:42;17.77;;;4.57;;
33403;SDS011;19751;40.274;18.268;2022-09-09T14:53:08;15.05;;;5.43;;
33403;SDS011;19751;40.274;18.268;2022-09-09T14:55:35;17.25;;;5.45;;
33403;SDS011;19751;40.274;18.268;2022-09-09T14:58:01;17.80;;;6.35;;
33403;SDS011;19751;40.274;18.268;2022-09-09T15:00:27;18.38;;;5.85;;
33403;SDS011;19751;40.274;18.268;2022-09-09T15:02:53;16.38;;;6.30;;
33403;SDS011;19751;40.274;18.268;2022-09-09T15:05:19;17.20;;;5.40;;
33403;SDS011;19751;40.274;18.268;2022-09-09T15:07:45;12.75;;;4.85;;
33403;SDS011;19751;40.274;18.268;2022-09-09T15:10:11;25.83;;;5.88;;
33403;SDS011;19751;40.274;18.268;2022-09-09T15:12:37;22.60;;;6.25;;
33403;SDS011;19751;40.274;18.268;2022-09-09T15:15:04;16.85;;;6.57;;
33403;SDS011;19751;40.274;18.268;2022-09-09T15:17:30;18.33;;;5.68;;
33403;SDS011;19751;40.274;18.268;2022-09-09T15:19:56;18.55;;;4.90;;
33403;SDS011;19751;40.274;18.268;2022-09-09T15:22:22;25.02;;;5.22;;
33403;SDS011;19751;40.274;18.268;2022-09-09T15:24:49;16.17;;;4.50;;
33403;SDS011;19751;40.274;18.268;2022-09-09T15:27:15;19.23;;;5.50;;
33403;SDS011;19751;40.274;18.268;2022-09-09T15:29:42;12.45;;;4.82;;
33403;SDS011;19751;40.274;18.268;2022-09-09T15:32:09;15.30;;;5.13;;
33403;SDS011;19751;40.274;18.268;2022-09-09T15:34:34;17.98;;;6.30;;
33403;SDS011;19751;40.274;18.268;2022-09-09T15:37:00;13.50;;;5.47;;
33403;SDS011;19751;40.274;18.268;2022-09-09T15:39:26;16.98;;;6.63;;
33403;SDS011;19751;40.274;18.268;2022-09-09T15:41:51;20.63;;;5.90;;
33403;SDS011;19751;40.274;18.268;2022-09-09T15:44:18;17.73;;;5.90;;
33403;SDS011;19751;40.274;18.268;2022-09-09T15:46:50;17.98;;;5.75;;
33403;SDS011;19751;40.274;18.268;2022-09-09T15:49:19;19.35;;;5.93;;
33403;SDS011;19751;40.274;18.268;2022-09-09T15:51:53;13.45;;;6.05;;
33403;SDS011;19751;40.274;18.268;2022-09-09T15:54:21;13.30;;;5.78;;
33403;SDS011;19751;40.274;18.268;2022-09-09T15:56:56;25.20;;;9.35;;
33403;SDS011;19751;40.274;18.268;2022-09-09T15:59:24;27.70;;;9.77;;
33403;SDS011;19751;40.274;18.268;2022-09-09T16:01:50;22.58;;;9.40;;
33403;SDS011;19751;40.274;18.268;2022-09-09T16:04:17;22.27;;;7.93;;
33403;SDS011;19751;40.274;18.268;2022-09-09T16:06:54;18.77;;;7.57;;
33403;SDS011;19751;40.274;18.268;2022-09-09T16:09:22;17.38;;;7.28;;
33403;SDS011;19751;40.274;18.268;2022-09-09T16:11:48;13.77;;;6.50;;
33403;SDS011;19751;40.274;18.268;2022-09-09T16:14:14;13.82;;;6.07;;
33403;SDS011;19751;40.274;18.268;2022-09-09T16:16:41;18.73;;;7.55;;
33403;SDS011;19751;40.274;18.268;2022-09-09T16:19:08;14.77;;;6.13;;
33403;SDS011;19751;40.274;18.268;2022-09-09T16:21:39;18.45;;;6.32;;
33403;SDS011;19751;40.274;18.268;2022-09-09T16:24:09;20.40;;;5.78;;
33403;SDS011;19751;40.274;18.268;2022-09-09T16:26:37;22.92;;;6.32;;
33403;SDS011;19751;40.274;18.268;2022-09-09T16:29:04;20.95;;;6.05;;
33403;SDS011;19751;40.274;18.268;2022-09-09T16:31:31;20.95;;;7.18;;
33403;SDS011;19751;40.274;18.268;2022-09-09T16:33:57;16.60;;;6.03;;
33403;SDS011;19751;40.274;18.268;2022-09-09T16:36:24;14.18;;;6.13;;
33403;SDS011;19751;40.274;18.268;2022-09-09T16:38:52;16.20;;;6.47;;
33403;SDS011;19751;40.274;18.268;2022-09-09T16:41:20;18.08;;;7.22;;
33403;SDS011;19751;40.274;18.268;2022-09-09T16:43:46;21.33;;;7.55;;
33403;SDS011;19751;40.274;18.268;2022-09-09T16:48:40;21.42;;;8.07;;
33403;SDS011;19751;40.274;18.268;2022-09-09T16:51:07;15.48;;;6.70;;
33403;SDS011;19751;40.274;18.268;2022-09-09T16:53:36;21.48;;;7.45;;
33403;SDS011;19751;40.274;18.268;2022-09-09T16:56:13;16.63;;;7.40;;
33403;SDS011;19751;40.274;18.268;2022-09-09T16:58:40;29.88;;;7.60;;
33403;SDS011;19751;40.274;18.268;2022-09-09T17:01:08;25.42;;;8.77;;
33403;SDS011;19751;40.274;18.268;2022-09-09T17:03:35;20.15;;;7.03;;
33403;SDS011;19751;40.274;18.268;2022-09-09T17:06:02;20.50;;;6.93;;
33403;SDS011;19751;40.274;18.268;2022-09-09T17:08:29;19.85;;;7.03;;
33403;SDS011;19751;40.274;18.268;2022-09-09T17:10:55;15.38;;;8.35;;
33403;SDS011;19751;40.274;18.268;2022-09-09T17:13:21;17.30;;;6.93;;
33403;SDS011;19751;40.274;18.268;2022-09-09T17:15:47;18.98;;;7.93;;
33403;SDS011;19751;40.274;18.268;2022-09-09T17:18:13;19.95;;;7.50;;
33403;SDS011;19751;40.274;18.268;2022-09-09T17:20:39;16.45;;;7.47;;
33403;SDS011;19751;40.274;18.268;2022-09-09T17:23:06;26.02;;;8.13;;
33403;SDS011;19751;40.274;18.268;2022-09-09T17:25:33;17.33;;;6.93;;
33403;SDS011;19751;40.274;18.268;2022-09-09T17:27:59;24.42;;;8.23;;
33403;SDS011;19751;40.274;18.268;2022-09-09T17:30:25;27.05;;;8.52;;
33403;SDS011;19751;40.274;18.268;2022-09-09T17:32:52;21.70;;;8.20;;
33403;SDS011;19751;40.274;18.268;2022-09-09T17:35:18;18.77;;;7.40;;
33403;SDS011;19751;40.274;18.268;2022-09-09T17:37:45;13.02;;;6.75;;
33403;SDS011;19751;40.274;18.268;2022-09-09T17:40:11;15.23;;;6.70;;
33403;SDS011;19751;40.274;18.268;2022-09-09T17:42:36;25.65;;;8.32;;
33403;SDS011;19751;40.274;18.268;2022-09-09T17:45:02;16.08;;;7.75;;
33403;SDS011;19751;40.274;18.268;2022-09-09T17:47:29;16.25;;;8.60;;
33403;SDS011;19751;40.274;18.268;2022-09-09T17:49:56;16.67;;;7.15;;
33403;SDS011;19751;40.274;18.268;2022-09-09T17:52:22;15.35;;;7.60;;
33403;SDS011;19751;40.274;18.268;2022-09-09T17:54:48;16.08;;;7.30;;
33403;SDS011;19751;40.274;18.268;2022-09-09T17:57:15;21.95;;;7.95;;
33403;SDS011;19751;40.274;18.268;2022-09-09T17:59:42;18.05;;;6.55;;
33403;SDS011;19751;40.274;18.268;2022-09-09T18:02:09;29.33;;;8.10;;
33403;SDS011;19751;40.274;18.268;2022-09-09T18:04:38;17.42;;;7.47;;
33403;SDS011;19751;40.274;18.268;2022-09-09T18:07:04;20.42;;;7.80;;
33403;SDS011;19751;40.274;18.268;2022-09-09T18:09:31;27.02;;;7.97;;
33403;SDS011;19751;40.274;18.268;2022-09-09T18:11:57;18.77;;;6.55;;
33403;SDS011;19751;40.274;18.268;2022-09-09T18:14:26;18.65;;;7.75;;
33403;SDS011;19751;40.274;18.268;2022-09-09T18:16:54;15.75;;;6.63;;
33403;SDS011;19751;40.274;18.268;2022-09-09T18:19:21;26.38;;;9.00;;
33403;SDS011;19751;40.274;18.268;2022-09-09T18:21:48;33.58;;;9.05;;
33403;SDS011;19751;40.274;18.268;2022-09-09T18:24:15;27.20;;;8.80;;
33403;SDS011;19751;40.274;18.268;2022-09-09T18:26:43;16.17;;;7.30;;
33403;SDS011;19751;40.274;18.268;2022-09-09T18:29:10;23.40;;;7.97;;
33403;SDS011;19751;40.274;18.268;2022-09-09T18:31:38;19.85;;;7.50;;
33403;SDS011;19751;40.274;18.268;2022-09-09T18:34:07;18.98;;;7.47;;
33403;SDS011;19751;40.274;18.268;2022-09-09T18:36:36;18.83;;;8.32;;
33403;SDS011;19751;40.274;18.268;2022-09-09T18:39:05;23.92;;;8.05;;
33403;SDS011;19751;40.274;18.268;2022-09-09T18:41:35;20.88;;;7.57;;
33403;SDS011;19751;40.274;18.268;2022-09-09T18:44:10;14.63;;;7.43;;